Time;durP1;ratioP1;P1;durP2;ratioP2;P2;SDS_P1;SDS_P2;PMS_P1;PMS_P2;Temp;Humidity;BMP_temperature;BMP_pressure;BME280_temperature;BME280_humidity;BME280_pressure;Samples;Min_cycle;Max_cycle;Signal;HPM_P1;HPM_P2
2023/08/22 00:01:52;;;;;;;6.70;4.30;;;;;;;18.17;76.50;100967.07;104045;276;39648;-73
2023/08/22 00:04:26;;;;;;;6.40;4.60;;;;;;;18.16;76.32;100967.35;104030;275;39556;-73
2023/08/22 00:07:00;;;;;;;6.40;4.80;;;;;;;18.11;76.30;100965.99;104063;276;38871;-73
2023/08/22 00:09:34;;;;;;;8.60;4.90;;;;;;;18.08;76.49;100969.23;103838;277;39641;-71
2023/08/22 00:12:09;;;;;;;6.80;4.30;;;;;;;18.05;76.48;100967.95;104072;276;39414;-72
2023/08/22 00:14:43;;;;;;;9.40;4.80;;;;;;;18.04;76.60;100967.13;103388;276;899474;-72
2023/08/22 00:17:17;;;;;;;6.70;4.60;;;;;;;18.03;76.52;100961.01;103882;276;38242;-70
2023/08/22 00:19:51;;;;;;;5.50;4.30;;;;;;;18.02;76.50;100966.88;104016;275;38434;-70
2023/08/22 00:22:25;;;;;;;7.20;4.10;;;;;;;18.04;76.53;100966.78;104086;276;39422;-72
2023/08/22 00:24:59;;;;;;;5.00;4.40;;;;;;;18.01;76.40;100969.96;104045;275;38498;-72
2023/08/22 00:27:33;;;;;;;7.40;4.50;;;;;;;17.98;76.49;100967.31;104045;276;39386;-72
2023/08/22 00:30:08;;;;;;;6.70;4.80;;;;;;;17.95;76.44;100965.88;104040;275;38340;-72
2023/08/22 00:32:42;;;;;;;8.80;4.00;;;;;;;17.92;76.41;100966.62;104115;275;38774;-73
2023/08/22 00:35:16;;;;;;;9.70;4.50;;;;;;;17.88;76.48;100962.11;103865;276;38532;-73
2023/08/22 00:37:50;;;;;;;6.40;4.40;;;;;;;17.81;76.50;100958.77;104061;275;38714;-71
2023/08/22 00:40:24;;;;;;;7.60;4.50;;;;;;;17.80;76.78;100952.64;104042;276;38494;-72
2023/08/22 00:42:58;;;;;;;10.70;4.80;;;;;;;17.78;76.87;100951.55;104085;276;39547;-72
2023/08/22 00:45:32;;;;;;;8.40;4.40;;;;;;;17.77;76.78;100952.52;104011;276;38420;-72
2023/08/22 00:48:08;;;;;;;8.30;3.90;;;;;;;17.77;76.93;100957.77;104067;275;38418;-72
2023/08/22 00:50:42;;;;;;;6.00;4.20;;;;;;;17.76;76.91;100953.24;104067;275;39034;-72
2023/08/22 00:53:15;;;;;;;7.40;4.60;;;;;;;17.75;77.08;100957.00;104045;276;39796;-70
2023/08/22 00:55:49;;;;;;;9.60;4.50;;;;;;;17.72;77.31;100955.95;103949;275;171886;-71
2023/08/22 00:58:23;;;;;;;6.90;3.90;;;;;;;17.67;77.28;100950.40;104064;276;38569;-73
2023/08/22 01:00:57;;;;;;;7.60;4.00;;;;;;;17.65;77.33;100945.59;104037;276;39642;-73
2023/08/22 01:03:31;;;;;;;5.50;3.90;;;;;;;17.64;77.60;100945.67;104096;275;38853;-73
2023/08/22 01:06:10;;;;;;;7.50;4.30;;;;;;;17.61;77.70;100942.61;104042;276;38321;-74
2023/08/22 01:08:44;;;;;;;7.30;4.40;;;;;;;17.59;78.03;100944.16;104063;276;38478;-72
2023/08/22 01:11:22;;;;;;;6.30;4.10;;;;;;;17.56;78.06;100942.92;104031;276;38929;-72
2023/08/22 01:13:55;;;;;;;4.60;3.40;;;;;;;17.52;78.07;100940.88;103996;275;39956;-72
2023/08/22 01:16:29;;;;;;;6.10;3.90;;;;;;;17.48;77.93;100936.53;104067;276;38511;-71
2023/08/22 01:19:04;;;;;;;10.00;4.80;;;;;;;17.40;78.10;100933.45;104030;276;38554;-71
2023/08/22 01:21:39;;;;;;;9.40;4.30;;;;;;;17.35;78.39;100934.64;104050;276;38265;-74
2023/08/22 01:24:13;;;;;;;8.20;4.30;;;;;;;17.34;78.72;100929.42;104079;275;40001;-70
2023/08/22 01:26:47;;;;;;;8.20;4.60;;;;;;;17.34;78.84;100937.32;104054;275;38600;-72
2023/08/22 01:29:25;;;;;;;8.30;4.40;;;;;;;17.33;78.88;100943.91;104071;275;38465;-72
2023/08/22 01:32:05;;;;;;;12.60;4.50;;;;;;;17.28;78.90;100951.61;104090;275;39944;-74
2023/08/22 01:34:41;;;;;;;8.60;4.60;;;;;;;17.21;79.06;100945.81;104009;276;38769;-73
2023/08/22 01:37:15;;;;;;;7.20;4.60;;;;;;;17.15;79.16;100946.70;104080;275;38370;-73
2023/08/22 01:39:49;;;;;;;6.90;4.70;;;;;;;17.08;79.25;100939.30;104067;275;38448;-74
2023/08/22 01:42:23;;;;;;;5.50;4.20;;;;;;;17.06;79.45;100934.85;104093;274;38277;-73
2023/08/22 01:44:57;;;;;;;8.90;4.60;;;;;;;17.03;79.37;100941.38;104007;276;39645;-73
2023/08/22 01:47:30;;;;;;;5.60;4.10;;;;;;;17.01;79.74;100945.67;104090;276;39399;-72
2023/08/22 01:50:05;;;;;;;6.10;4.50;;;;;;;16.96;79.69;100944.90;104020;275;38695;-72
2023/08/22 01:52:40;;;;;;;10.90;4.60;;;;;;;16.94;79.93;100943.64;104054;276;39446;-72
2023/08/22 01:55:15;;;;;;;6.70;4.50;;;;;;;16.95;80.03;100947.81;103890;275;38831;-71
2023/08/22 01:57:49;;;;;;;6.40;4.40;;;;;;;16.94;80.29;100945.73;104070;275;39673;-71
2023/08/22 02:00:23;;;;;;;6.80;4.10;;;;;;;16.94;80.16;100952.42;103808;276;38570;-71
2023/08/22 02:02:58;;;;;;;6.50;3.90;;;;;;;16.91;80.15;100958.23;104056;275;39574;-74
2023/08/22 02:05:32;;;;;;;7.90;5.00;;;;;;;16.89;80.19;100968.96;104019;275;38508;-72
2023/08/22 02:08:06;;;;;;;7.00;4.20;;;;;;;16.82;80.09;100967.05;103997;276;40037;-72
2023/08/22 02:10:40;;;;;;;8.00;4.50;;;;;;;16.78;80.43;100964.25;104057;275;38678;-73
2023/08/22 02:13:14;;;;;;;6.60;4.30;;;;;;;16.76;80.31;100968.77;104070;276;38355;-72
2023/08/22 02:15:48;;;;;;;8.10;4.70;;;;;;;16.70;80.17;100969.22;104117;275;38687;-71
2023/08/22 02:18:22;;;;;;;6.80;4.30;;;;;;;16.68;80.50;100968.65;104092;275;38407;-74
2023/08/22 02:20:58;;;;;;;6.20;4.50;;;;;;;16.65;80.50;100966.52;104038;275;39321;-74
2023/08/22 02:23:32;;;;;;;7.20;4.40;;;;;;;16.62;80.73;100968.58;103721;278;174680;-74
2023/08/22 02:26:07;;;;;;;5.60;4.60;;;;;;;16.61;80.93;100966.36;104014;275;39381;-74
2023/08/22 02:28:41;;;;;;;9.40;4.80;;;;;;;16.59;80.90;100963.13;104015;275;38708;-73
2023/08/22 02:31:15;;;;;;;7.10;4.60;;;;;;;16.57;80.84;100962.21;103934;275;175024;-73
2023/08/22 02:33:49;;;;;;;6.30;4.50;;;;;;;16.53;80.93;100963.45;104019;275;38373;-71
2023/08/22 02:36:23;;;;;;;8.30;4.90;;;;;;;16.49;80.95;100964.04;104037;275;38284;-73
2023/08/22 02:38:56;;;;;;;6.20;4.20;;;;;;;16.45;81.03;100967.92;103986;277;38919;-73
2023/08/22 02:41:30;;;;;;;6.00;4.20;;;;;;;16.39;81.28;100972.63;104068;264;38528;-72
2023/08/22 02:44:04;;;;;;;7.10;4.90;;;;;;;16.35;81.07;100972.67;104020;275;38404;-72
2023/08/22 02:46:38;;;;;;;5.90;4.80;;;;;;;16.30;81.20;100974.56;104095;275;38388;-73
2023/08/22 02:49:12;;;;;;;5.70;4.50;;;;;;;16.25;81.55;100976.17;104066;276;39687;-74
2023/08/22 02:51:46;;;;;;;6.60;4.60;;;;;;;16.19;81.30;100980.35;104075;276;39748;-74
2023/08/22 02:54:20;;;;;;;7.10;4.30;;;;;;;16.15;81.55;100983.94;104042;276;38239;-74
2023/08/22 02:56:54;;;;;;;7.30;5.10;;;;;;;16.10;81.60;100985.77;104071;275;38477;-74
2023/08/22 02:59:28;;;;;;;6.30;4.40;;;;;;;16.05;81.60;100983.02;104036;276;39389;-74
2023/08/22 03:02:03;;;;;;;7.80;4.70;;;;;;;16.02;81.83;100976.69;104049;276;39158;-74
2023/08/22 03:04:37;;;;;;;6.90;4.70;;;;;;;15.97;82.01;100975.33;104025;276;38782;-72
2023/08/22 03:07:11;;;;;;;8.50;5.00;;;;;;;15.94;82.17;100966.53;104053;275;38270;-74
2023/08/22 03:09:45;;;;;;;6.80;4.20;;;;;;;15.91;82.31;100965.64;104015;276;38631;-73
2023/08/22 03:12:19;;;;;;;5.60;4.40;;;;;;;15.87;82.42;100967.41;104071;276;38544;-71
2023/08/22 03:14:53;;;;;;;8.10;4.60;;;;;;;15.82;82.32;100963.95;104048;276;38966;-69
2023/08/22 03:17:27;;;;;;;5.40;4.50;;;;;;;15.80;82.59;100963.02;104092;276;38401;-71
2023/08/22 03:20:00;;;;;;;7.60;4.40;;;;;;;15.78;82.60;100961.38;104005;276;38276;-71
2023/08/22 03:22:35;;;;;;;5.80;4.60;;;;;;;15.74;82.76;100963.81;104066;276;39546;-74
2023/08/22 03:25:10;;;;;;;5.80;4.40;;;;;;;15.72;82.85;100963.58;104048;276;38422;-72
2023/08/22 03:27:44;;;;;;;5.50;4.50;;;;;;;15.69;82.76;100960.73;104059;276;39277;-70
2023/08/22 03:30:18;;;;;;;5.70;4.30;;;;;;;15.66;82.97;100957.52;104052;276;38237;-70
2023/08/22 03:32:52;;;;;;;4.40;4.00;;;;;;;15.64;82.82;100961.52;104040;276;38450;-73
2023/08/22 03:35:26;;;;;;;7.40;4.60;;;;;;;15.62;82.90;100959.69;104039;276;38599;-73
2023/08/22 03:37:59;;;;;;;7.80;5.60;;;;;;;15.61;83.14;100961.47;104046;276;38287;-72
2023/08/22 03:40:34;;;;;;;7.20;5.70;;;;;;;15.62;83.16;100966.02;104072;276;38883;-72
2023/08/22 03:43:08;;;;;;;9.00;6.00;;;;;;;15.62;83.33;100968.80;104042;276;38775;-71
2023/08/22 03:45:41;;;;;;;7.40;6.60;;;;;;;15.63;83.55;100971.74;104043;276;39054;-70
2023/08/22 03:48:15;;;;;;;8.80;6.30;;;;;;;15.65;83.68;100970.44;104075;276;38717;-71
2023/08/22 03:50:49;;;;;;;7.90;7.10;;;;;;;15.67;83.57;100968.41;104163;275;38550;-72
2023/08/22 03:53:24;;;;;;;8.00;7.00;;;;;;;15.67;83.48;100972.08;104148;276;38781;-72
2023/08/22 03:55:58;;;;;;;7.90;7.10;;;;;;;15.66;83.52;100975.33;104148;275;38220;-71
2023/08/22 03:58:31;;;;;;;9.10;7.10;;;;;;;15.67;83.85;100971.78;104128;275;38487;-72
2023/08/22 04:01:07;;;;;;;8.20;7.40;;;;;;;15.68;83.68;100971.72;104143;275;39552;-73
2023/08/22 04:03:41;;;;;;;8.60;7.70;;;;;;;15.68;83.65;100971.16;104171;275;38675;-73
2023/08/22 04:06:15;;;;;;;9.00;6.80;;;;;;;15.71;84.16;100969.44;104031;277;41448;-72
2023/08/22 04:08:49;;;;;;;7.60;6.90;;;;;;;15.74;83.98;100967.19;104119;275;38248;-74
2023/08/22 04:11:23;;;;;;;8.80;7.20;;;;;;;15.75;83.99;100963.63;104149;275;38382;-72
2023/08/22 04:13:57;;;;;;;8.80;7.10;;;;;;;15.77;84.17;100962.65;104156;275;39420;-73
2023/08/22 04:16:30;;;;;;;7.30;6.60;;;;;;;15.79;84.37;100963.43;104158;275;38318;-73
2023/08/22 04:19:04;;;;;;;7.60;6.40;;;;;;;15.83;84.63;100963.05;104144;275;38224;-74
2023/08/22 04:21:38;;;;;;;7.90;6.00;;;;;;;15.86;84.50;100958.80;104138;276;39180;-73
2023/08/22 04:24:12;;;;;;;6.50;5.90;;;;;;;15.88;84.63;100960.69;104130;275;38175;-74
2023/08/22 04:26:46;;;;;;;9.20;5.90;;;;;;;15.93;84.93;100956.03;104113;271;39851;-73
2023/08/22 04:29:20;;;;;;;7.90;5.60;;;;;;;15.96;84.69;100958.34;103867;276;189510;-70
2023/08/22 04:31:56;;;;;;;8.80;5.40;;;;;;;16.02;84.95;100959.45;104164;275;38950;-74
2023/08/22 04:34:30;;;;;;;5.90;5.00;;;;;;;16.06;84.98;100958.52;104153;276;39073;-74
2023/08/22 04:37:04;;;;;;;8.00;5.20;;;;;;;16.08;85.08;100959.84;104186;275;38430;-73
2023/08/22 04:39:38;;;;;;;8.20;4.90;;;;;;;16.12;85.42;100956.14;104140;276;40031;-71
2023/08/22 04:42:12;;;;;;;5.60;4.70;;;;;;;16.17;86.00;100959.70;104220;275;38599;-74
2023/08/22 04:44:46;;;;;;;6.90;4.40;;;;;;;16.31;87.70;100963.40;104101;276;38258;-73
2023/08/22 04:47:20;;;;;;;4.90;4.10;;;;;;;16.66;90.63;100965.05;104177;275;38247;-71
2023/08/22 04:49:53;;;;;;;5.40;4.10;;;;;;;17.21;90.00;100963.60;104138;275;39488;-72
2023/08/22 04:52:27;;;;;;;6.20;4.40;;;;;;;17.71;87.31;100968.01;104170;276;39108;-71
2023/08/22 04:55:01;;;;;;;5.80;4.40;;;;;;;17.86;85.35;100969.99;104134;276;38388;-69
2023/08/22 04:57:35;;;;;;;6.90;4.40;;;;;;;17.91;84.39;100973.02;104137;276;39417;-74
2023/08/22 05:00:13;;;;;;;6.40;4.60;;;;;;;17.89;83.32;100974.73;104117;275;40586;-73
2023/08/22 05:02:47;;;;;;;5.40;4.50;;;;;;;17.86;83.12;100972.44;104161;275;38238;-73
2023/08/22 05:05:21;;;;;;;6.10;4.30;;;;;;;17.87;83.35;100977.35;104136;275;38902;-74
2023/08/22 05:07:55;;;;;;;5.90;4.20;;;;;;;17.93;83.02;100978.05;104173;276;38484;-70
2023/08/22 05:10:30;;;;;;;5.60;4.20;;;;;;;17.96;82.74;100978.91;104138;275;38235;-71
2023/08/22 05:13:04;;;;;;;5.20;3.90;;;;;;;18.02;82.97;100977.46;104150;275;39478;-71
2023/08/22 05:15:37;;;;;;;7.30;4.00;;;;;;;18.13;82.90;100981.45;104118;276;39688;-71
2023/08/22 05:18:12;;;;;;;7.40;4.40;;;;;;;18.21;82.78;100984.52;104167;275;38412;-74
2023/08/22 05:20:45;;;;;;;8.90;5.10;;;;;;;18.28;81.82;100986.35;104044;276;38256;-74
2023/08/22 05:23:21;;;;;;;7.10;4.30;;;;;;;18.32;81.52;100987.55;104062;275;38503;-72
2023/08/22 05:25:55;;;;;;;7.80;4.90;;;;;;;18.40;81.26;100993.77;104122;275;38217;-72
2023/08/22 05:28:29;;;;;;;9.30;4.00;;;;;;;18.47;81.01;100990.52;104053;275;174930;-73
2023/08/22 05:31:05;;;;;;;6.80;3.90;;;;;;;18.59;81.24;100986.40;104172;275;39713;-72
2023/08/22 05:33:39;;;;;;;7.70;3.90;;;;;;;18.81;81.14;100984.21;104142;275;38283;-74
2023/08/22 05:36:14;;;;;;;7.30;4.00;;;;;;;18.94;80.36;100986.69;104150;275;39410;-74
2023/08/22 05:38:48;;;;;;;6.80;4.50;;;;;;;19.04;79.76;100986.27;104112;276;38375;-74
2023/08/22 05:41:22;;;;;;;5.90;4.00;;;;;;;19.11;79.27;100985.31;104124;275;38527;-73
2023/08/22 05:43:56;;;;;;;9.80;4.00;;;;;;;19.22;78.88;100991.29;104163;275;38609;-75
2023/08/22 05:46:30;;;;;;;6.40;3.90;;;;;;;19.40;78.76;100993.66;103908;277;172148;-73
2023/08/22 05:49:04;;;;;;;10.20;4.50;;;;;;;20.13;82.04;100991.33;104114;275;38266;-73
2023/08/22 05:51:38;;;;;;;6.60;3.30;;;;;;;21.31;80.15;100985.50;104158;276;38007;-73
2023/08/22 05:54:12;;;;;;;12.40;4.40;;;;;;;22.43;76.41;100985.05;104140;275;38576;-75
2023/08/22 05:56:46;;;;;;;7.30;3.40;;;;;;;23.67;73.58;100982.39;104129;275;39479;-73
2023/08/22 05:59:20;;;;;;;8.60;3.80;;;;;;;24.88;68.37;100987.20;104142;275;38863;-73
2023/08/22 06:01:54;;;;;;;9.20;3.50;;;;;;;25.78;62.87;100992.16;104148;275;38954;-71
2023/08/22 06:04:28;;;;;;;15.60;3.70;;;;;;;26.49;59.74;100992.23;104137;275;39901;-72
2023/08/22 06:07:02;;;;;;;6.80;3.00;;;;;;;27.14;57.51;100992.98;104159;275;38290;-73
2023/08/22 06:09:36;;;;;;;6.60;3.20;;;;;;;27.85;54.80;100988.45;104012;275;174447;-73
2023/08/22 06:12:12;;;;;;;7.30;2.50;;;;;;;28.57;52.42;100983.60;104132;276;38571;-72
2023/08/22 06:14:46;;;;;;;7.20;3.00;;;;;;;29.16;49.92;100979.86;104143;275;39503;-72
2023/08/22 06:17:20;;;;;;;9.00;2.40;;;;;;;29.75;48.22;100977.43;104155;275;38467;-74
2023/08/22 06:19:54;;;;;;;6.00;2.30;;;;;;;30.09;45.63;100977.21;104107;275;38487;-74
2023/08/22 06:22:28;;;;;;;4.80;1.90;;;;;;;30.36;44.30;100975.54;104122;275;38510;-73
2023/08/22 06:25:06;;;;;;;7.00;2.40;;;;;;;30.80;43.25;100973.59;104152;275;38275;-76
2023/08/22 06:27:50;;;;;;;6.60;2.70;;;;;;;31.13;42.28;100967.27;103999;277;38311;-73
2023/08/22 06:30:25;;;;;;;6.80;2.70;;;;;;;31.24;41.89;100969.61;103992;276;38489;-73
2023/08/22 06:32:59;;;;;;;4.30;2.30;;;;;;;31.07;40.69;100970.49;104080;275;38274;-73
2023/08/22 06:35:36;;;;;;;6.50;2.50;;;;;;;30.54;40.62;100980.88;104115;275;39592;-75
2023/08/22 06:38:10;;;;;;;5.60;2.50;;;;;;;29.76;41.16;100981.45;104188;275;39450;-74
2023/08/22 06:40:44;;;;;;;4.90;2.60;;;;;;;29.21;42.39;100978.56;104135;275;38586;-74
2023/08/22 06:43:18;;;;;;;6.40;2.10;;;;;;;28.75;42.67;100985.85;104173;275;38363;-74
2023/08/22 06:45:52;;;;;;;6.20;2.20;;;;;;;28.09;43.69;100985.70;104157;275;39723;-74
2023/08/22 06:48:26;;;;;;;5.30;2.20;;;;;;;27.65;44.85;100987.77;104049;277;38851;-72
2023/08/22 06:51:01;;;;;;;6.00;2.30;;;;;;;27.26;44.99;100988.83;104131;264;39715;-72
2023/08/22 06:53:36;;;;;;;7.50;2.00;;;;;;;26.79;46.04;100987.60;104137;275;38256;-73
2023/08/22 06:56:10;;;;;;;4.80;2.30;;;;;;;26.41;47.02;100990.56;104175;275;38244;-72
2023/08/22 06:58:45;;;;;;;8.40;2.30;;;;;;;26.12;47.48;100991.10;104131;275;38389;-72
2023/08/22 07:01:18;;;;;;;7.10;2.10;;;;;;;25.91;48.64;100989.18;104145;275;39752;-72
2023/08/22 07:03:52;;;;;;;4.10;2.10;;;;;;;25.73;49.32;100991.82;100624;252;5004945;-73
2023/08/22 07:06:26;;;;;;;6.50;2.60;;;;;;;25.61;49.38;100992.40;104161;263;38894;-73
2023/08/22 07:09:01;;;;;;;7.20;2.20;;;;;;;25.43;49.69;100986.21;104145;275;38246;-72
2023/08/22 07:11:37;;;;;;;7.10;2.30;;;;;;;25.27;50.27;100987.67;104038;275;174590;-71
2023/08/22 07:14:11;;;;;;;6.90;2.40;;;;;;;25.12;50.57;100986.48;104217;275;38399;-73
2023/08/22 07:16:45;;;;;;;7.20;2.00;;;;;;;24.98;50.68;100981.52;104100;275;38261;-74
2023/08/22 07:19:19;;;;;;;6.20;1.80;;;;;;;24.88;50.84;100984.88;104154;275;38718;-72
2023/08/22 07:21:55;;;;;;;5.90;1.80;;;;;;;24.85;51.36;100982.49;104142;275;39929;-72
2023/08/22 07:24:29;;;;;;;5.80;2.00;;;;;;;25.00;52.15;100982.59;104168;275;39094;-74
2023/08/22 07:27:12;;;;;;;4.20;2.00;;;;;;;25.19;51.88;100984.41;103991;275;39394;-74
2023/08/22 07:29:46;;;;;;;4.90;1.90;;;;;;;25.42;52.14;100985.59;104123;275;38231;-74
2023/08/22 07:32:20;;;;;;;7.60;2.40;;;;;;;25.80;51.88;100977.70;104185;275;38444;-73
2023/08/22 07:34:54;;;;;;;5.90;2.10;;;;;;;26.13;50.58;100973.85;104174;275;38631;-74
2023/08/22 07:37:28;;;;;;;5.20;2.00;;;;;;;26.52;50.05;100973.92;104034;275;38370;-76
2023/08/22 07:40:06;;;;;;;4.20;1.80;;;;;;;27.13;49.02;100967.63;103999;275;39415;-75
2023/08/22 07:42:40;;;;;;;3.90;1.80;;;;;;;27.67;47.75;100960.13;104179;275;40001;-74
2023/08/22 07:45:15;;;;;;;7.00;1.60;;;;;;;28.03;47.33;100964.94;104138;275;38468;-72
2023/08/22 07:47:49;;;;;;;4.20;1.60;;;;;;;28.28;46.60;100963.92;104169;275;38607;-72
2023/08/22 07:50:23;;;;;;;4.60;1.40;;;;;;;28.49;45.35;100963.17;104120;275;38408;-71
2023/08/22 07:52:57;;;;;;;4.00;1.70;;;;;;;28.44;44.53;100965.73;104160;275;38305;-71
2023/08/22 07:55:31;;;;;;;6.80;1.50;;;;;;;28.60;45.02;100962.11;104106;275;38852;-71
2023/08/22 07:58:05;;;;;;;4.20;1.60;;;;;;;28.95;44.68;100960.33;104158;275;38566;-72
2023/08/22 08:00:39;;;;;;;5.70;2.00;;;;;;;28.99;44.12;100963.72;104115;275;39480;-71
2023/08/22 08:03:13;;;;;;;5.90;1.60;;;;;;;29.09;43.39;100962.47;104053;275;39184;-71
2023/08/22 08:05:47;;;;;;;3.40;1.40;;;;;;;29.56;42.99;100965.46;104323;275;38583;-72
2023/08/22 08:08:21;;;;;;;4.50;1.40;;;;;;;30.28;41.82;100966.12;104224;275;38355;-74
2023/08/22 08:10:55;;;;;;;4.80;1.50;;;;;;;30.82;40.10;100965.06;104148;275;38288;-75
2023/08/22 08:13:29;;;;;;;3.40;1.30;;;;;;;31.33;39.29;100962.11;103452;275;886651;-73
2023/08/22 08:16:03;;;;;;;4.00;1.80;;;;;;;31.58;37.51;100957.73;104162;275;39688;-73
2023/08/22 08:18:38;;;;;;;6.00;1.80;;;;;;;31.49;37.50;100959.63;104146;275;39397;-75
2023/08/22 08:21:12;;;;;;;5.50;1.80;;;;;;;31.85;37.40;100957.52;104107;275;38246;-74
2023/08/22 08:23:46;;;;;;;3.40;1.40;;;;;;;32.20;36.71;100955.58;104125;275;38951;-74
2023/08/22 08:26:20;;;;;;;5.30;1.40;;;;;;;32.79;36.46;100954.77;104134;275;38994;-75
2023/08/22 08:28:54;;;;;;;4.10;1.70;;;;;;;33.32;35.72;100960.19;104168;275;40027;-71
2023/08/22 08:31:28;;;;;;;4.50;1.50;;;;;;;33.76;34.49;100962.77;104159;275;38378;-72
2023/08/22 08:34:01;;;;;;;4.60;1.70;;;;;;;34.18;33.90;100965.70;104184;275;38244;-74
2023/08/22 08:36:35;;;;;;;3.40;1.30;;;;;;;34.68;31.81;100972.27;104137;275;38241;-75
2023/08/22 08:39:09;;;;;;;4.70;1.50;;;;;;;34.90;30.65;100970.48;104222;275;38605;-72
2023/08/22 08:41:47;;;;;;;1.60;0.90;;;;;;;35.21;28.91;100965.42;104152;275;38275;-74
2023/08/22 08:44:21;;;;;;;2.80;1.20;;;;;;;35.39;29.28;100963.24;104168;275;39714;-73
2023/08/22 08:46:55;;;;;;;2.30;1.10;;;;;;;35.90;29.21;100957.35;104143;275;39321;-72
2023/08/22 08:49:30;;;;;;;1.90;1.00;;;;;;;36.15;27.83;100964.05;104156;275;39141;-72
2023/08/22 08:52:05;;;;;;;2.10;0.90;;;;;;;36.41;27.44;100965.06;104157;275;38294;-72
2023/08/22 08:54:39;;;;;;;3.70;1.20;;;;;;;36.65;27.03;100968.98;104032;275;173565;-74
2023/08/22 08:57:16;;;;;;;3.60;1.10;;;;;;;36.76;26.43;100963.36;104149;275;39670;-73
2023/08/22 08:59:53;;;;;;;3.60;1.60;;;;;;;37.06;26.82;100959.55;104162;275;38234;-71
2023/08/22 09:02:28;;;;;;;3.00;1.20;;;;;;;37.37;26.65;100954.17;104106;275;39602;-73
2023/08/22 09:05:02;;;;;;;3.10;1.30;;;;;;;37.65;25.68;100955.88;104169;275;38380;-71
2023/08/22 09:07:36;;;;;;;2.90;1.20;;;;;;;37.87;25.39;100947.64;104154;275;38403;-73
2023/08/22 09:10:11;;;;;;;2.80;1.20;;;;;;;38.02;24.99;100940.65;104149;275;38277;-72
2023/08/22 09:12:45;;;;;;;2.30;1.00;;;;;;;38.14;24.86;100939.29;104169;275;38989;-72
2023/08/22 09:15:21;;;;;;;5.10;1.30;;;;;;;38.20;25.10;100942.81;104149;275;38753;-72
2023/08/22 09:17:58;;;;;;;3.90;1.30;;;;;;;38.18;24.55;100933.12;104178;275;38847;-75
2023/08/22 09:20:32;;;;;;;3.50;1.30;;;;;;;37.99;24.10;100939.78;104143;275;38249;-74
2023/08/22 09:23:06;;;;;;;3.50;1.40;;;;;;;37.55;23.82;100934.69;104081;275;39968;-74
2023/08/22 09:25:44;;;;;;;2.40;1.10;;;;;;;37.20;23.87;100936.30;103993;275;39689;-76
2023/08/22 09:28:20;;;;;;;5.00;1.50;;;;;;;36.71;24.01;100935.90;104174;275;38238;-71
2023/08/22 09:30:54;;;;;;;2.30;1.10;;;;;;;36.40;24.66;100928.33;103847;275;39789;-71
2023/08/22 09:33:28;;;;;;;3.60;1.10;;;;;;;36.30;25.76;100924.15;104124;275;38393;-74
2023/08/22 09:36:03;;;;;;;3.50;1.10;;;;;;;36.21;25.86;100915.50;104153;275;38269;-73
2023/08/22 09:38:36;;;;;;;2.20;1.20;;;;;;;35.88;26.36;100914.36;104198;275;38237;-75
2023/08/22 09:41:10;;;;;;;4.20;1.00;;;;;;;35.38;26.13;100916.11;104161;275;38648;-74
2023/08/22 09:43:44;;;;;;;2.40;1.00;;;;;;;34.77;26.43;100924.25;104143;275;38807;-72
2023/08/22 09:46:18;;;;;;;1.70;1.10;;;;;;;34.41;27.28;100929.83;104152;275;38246;-72
2023/08/22 09:48:53;;;;;;;3.20;1.10;;;;;;;34.09;26.86;100923.23;104139;275;38272;-72
2023/08/22 09:51:27;;;;;;;2.20;0.90;;;;;;;33.68;27.73;100917.06;104043;274;174227;-72
2023/08/22 09:54:03;;;;;;;2.00;1.20;;;;;;;33.37;28.44;100913.13;104169;275;38293;-74
2023/08/22 09:56:37;;;;;;;1.90;1.00;;;;;;;33.07;28.60;100907.06;104136;275;38360;-76
2023/08/22 09:59:11;;;;;;;3.80;1.00;;;;;;;32.72;28.37;100907.81;104125;275;38539;-74
2023/08/22 10:01:45;;;;;;;2.60;1.00;;;;;;;32.36;28.56;100908.88;104145;275;38389;-74
2023/08/22 10:04:19;;;;;;;2.30;0.80;;;;;;;31.95;27.69;100903.50;104179;275;38235;-74
2023/08/22 10:06:53;;;;;;;1.70;0.80;;;;;;;31.55;28.73;100897.60;104136;275;38418;-74
2023/08/22 10:09:27;;;;;;;2.20;0.90;;;;;;;31.37;29.52;100897.61;104169;275;39114;-71
2023/08/22 10:12:03;;;;;;;3.00;1.10;;;;;;;31.22;29.65;100895.89;104136;274;38420;-71
2023/08/22 10:14:41;;;;;;;2.40;0.90;;;;;;;31.07;30.52;100890.84;104126;275;38662;-72
2023/08/22 10:17:16;;;;;;;1.70;1.00;;;;;;;31.02;30.89;100890.47;104057;275;171648;-72
2023/08/22 10:19:50;;;;;;;1.80;0.80;;;;;;;31.02;30.88;100897.19;104118;275;38726;-71
2023/08/22 10:22:24;;;;;;;2.10;1.00;;;;;;;31.00;30.68;100893.49;104026;275;39430;-72
2023/08/22 10:25:06;;;;;;;1.80;1.00;;;;;;;30.94;31.07;100891.77;104109;275;38453;-73
2023/08/22 10:27:41;;;;;;;2.50;0.90;;;;;;;30.74;29.80;100890.89;104178;275;38372;-73
2023/08/22 10:30:33;;;;;;;3.30;1.10;;;;;;;30.47;30.64;100890.60;104074;276;39895;-72
2023/08/22 10:33:10;;;;;;;3.20;1.00;;;;;;;30.21;30.01;100892.06;104029;275;174061;-73
2023/08/22 10:35:44;;;;;;;3.40;1.00;;;;;;;29.93;30.05;100888.58;104109;275;38469;-73
2023/08/22 10:38:24;;;;;;;2.60;1.30;;;;;;;29.76;31.16;100881.25;104164;275;38623;-74
2023/08/22 10:40:58;;;;;;;2.10;1.00;;;;;;;29.77;32.43;100880.91;104161;275;38241;-74
2023/08/22 10:43:41;;;;;;;2.40;1.10;;;;;;;29.83;32.20;100876.17;104189;275;38294;-73
2023/08/22 10:46:19;;;;;;;2.50;0.80;;;;;;;29.78;31.83;100882.43;104124;275;38363;-73
2023/08/22 10:48:54;;;;;;;2.70;1.10;;;;;;;29.78;32.19;100879.42;104166;275;39550;-71
2023/08/22 10:51:45;;;;;;;1.90;0.90;;;;;;;29.79;32.03;100877.67;104099;275;38239;-71
2023/08/22 10:54:21;;;;;;;3.30;1.10;;;;;;;29.74;31.62;100871.44;104172;275;38236;-73
2023/08/22 10:57:13;;;;;;;2.30;1.20;;;;;;;29.64;31.41;100867.48;104168;275;39661;-73
2023/08/22 11:00:12;;;;;;;3.30;1.40;;;;;;;29.49;31.41;100863.06;104146;275;38816;-72
2023/08/22 11:02:49;;;;;;;7.10;1.30;;;;;;;29.42;32.39;100865.23;104157;275;38436;-71
2023/08/22 11:05:23;;;;;;;3.40;1.10;;;;;;;29.41;32.03;100865.87;104118;275;39887;-71
2023/08/22 11:07:57;;;;;;;3.10;1.10;;;;;;;29.22;31.16;100866.17;104101;275;38958;-71
2023/08/22 11:10:32;;;;;;;1.80;0.90;;;;;;;29.01;31.33;100867.04;104064;275;38647;-70
2023/08/22 11:13:12;;;;;;;2.60;1.10;;;;;;;28.91;32.72;100863.60;104042;275;38271;-73
2023/08/22 11:15:47;;;;;;;2.60;1.10;;;;;;;29.00;32.89;100862.47;104111;275;38482;-73
2023/08/22 11:18:21;;;;;;;3.20;1.50;;;;;;;29.00;32.26;100862.29;104145;275;38755;-72
2023/08/22 11:20:58;;;;;;;2.60;1.00;;;;;;;28.96;32.42;100859.50;104141;275;38588;-73
2023/08/22 11:23:34;;;;;;;2.20;1.10;;;;;;;28.92;32.70;100860.95;104175;264;39938;-74
2023/08/22 11:26:12;;;;;;;2.50;1.10;;;;;;;29.01;33.33;100857.50;104123;275;38468;-73
2023/08/22 11:28:46;;;;;;;2.20;1.00;;;;;;;29.14;33.06;100858.59;104187;275;39556;-71
2023/08/22 11:31:20;;;;;;;2.90;1.10;;;;;;;29.20;32.81;100859.60;104118;275;38252;-71
2023/08/22 11:33:54;;;;;;;2.30;1.10;;;;;;;29.17;33.10;100863.97;104159;275;38672;-72
2023/08/22 11:36:28;;;;;;;2.30;1.20;;;;;;;29.20;33.28;100859.16;104125;275;39034;-72
2023/08/22 11:39:03;;;;;;;3.00;1.10;;;;;;;29.34;33.60;100857.89;104157;275;38553;-72
2023/08/22 11:41:37;;;;;;;2.50;1.10;;;;;;;29.45;33.32;100858.30;104159;275;38790;-71
2023/08/22 11:44:17;;;;;;;1.70;1.20;;;;;;;29.53;32.85;100861.91;104153;275;40582;-74
2023/08/22 11:46:54;;;;;;;4.20;1.20;;;;;;;29.52;32.52;100865.24;104113;275;38279;-73
2023/08/22 11:49:28;;;;;;;2.60;1.20;;;;;;;29.41;32.09;100864.70;104144;275;38279;-71
2023/08/22 11:52:03;;;;;;;1.60;1.30;;;;;;;29.28;31.95;100863.19;104108;275;38672;-71
2023/08/22 11:54:47;;;;;;;3.50;1.30;;;;;;;29.21;32.84;100861.72;104089;275;38250;-71
2023/08/22 11:57:21;;;;;;;3.20;1.30;;;;;;;29.21;33.25;100865.90;104177;263;38274;-72
2023/08/22 11:59:55;;;;;;;2.10;1.40;;;;;;;29.18;32.72;100861.19;104060;275;38237;-72